sensor_id;sensor_type;location;lat;lon;timestamp;pressure;altitude;pressure_sealevel;temperature;humidity
17230;BME280;8731;50.364;8.958;2024-01-25T00:01:25;101127.06;;;9.30;81.67
17230;BME280;8731;50.364;8.958;2024-01-25T00:05:48;101116.22;;;9.24;82.04
17230;BME280;8731;50.364;8.958;2024-01-25T00:10:11;101120.75;;;9.27;81.36
17230;BME280;8731;50.364;8.958;2024-01-25T00:14:34;101121.81;;;9.29;81.78
17230;BME280;8731;50.364;8.958;2024-01-25T00:18:56;101121.31;;;9.24;82.28
17230;BME280;8731;50.364;8.958;2024-01-25T00:23:18;101130.91;;;9.19;82.68
17230;BME280;8731;50.364;8.958;2024-01-25T00:27:42;101134.19;;;9.18;82.59
17230;BME280;8731;50.364;8.958;2024-01-25T00:32:05;101122.56;;;9.20;82.18
17230;BME280;8731;50.364;8.958;2024-01-25T00:36:28;101125.84;;;9.19;82.73
17230;BME280;8731;50.364;8.958;2024-01-25T00:40:51;101143.28;;;9.16;82.79
17230;BME280;8731;50.364;8.958;2024-01-25T00:45:15;101140.16;;;9.26;82.54
17230;BME280;8731;50.364;8.958;2024-01-25T00:49:38;101126.38;;;9.24;82.44
17230;BME280;8731;50.364;8.958;2024-01-25T00:54:01;101144.69;;;9.21;82.67
17230;BME280;8731;50.364;8.958;2024-01-25T00:58:25;101150.50;;;9.20;82.87
17230;BME280;8731;50.364;8.958;2024-01-25T01:02:49;101144.16;;;9.24;82.72
17230;BME280;8731;50.364;8.958;2024-01-25T01:07:12;101155.25;;;9.17;83.22
17230;BME280;8731;50.364;8.958;2024-01-25T01:11:36;101144.69;;;9.21;83.42
17230;BME280;8731;50.364;8.958;2024-01-25T01:15:58;101140.75;;;9.16;83.67
17230;BME280;8731;50.364;8.958;2024-01-25T01:20:22;101128.03;;;9.16;83.50
17230;BME280;8731;50.364;8.958;2024-01-25T01:24:44;101120.25;;;9.15;83.65
17230;BME280;8731;50.364;8.958;2024-01-25T01:29:06;101118.44;;;9.14;83.99
17230;BME280;8731;50.364;8.958;2024-01-25T01:33:29;101122.50;;;9.05;84.61
17230;BME280;8731;50.364;8.958;2024-01-25T01:37:52;101117.53;;;9.13;84.70
17230;BME280;8731;50.364;8.958;2024-01-25T01:42:15;101128.81;;;9.08;84.29
17230;BME280;8731;50.364;8.958;2024-01-25T01:46:37;101119.00;;;9.11;84.63
17230;BME280;8731;50.364;8.958;2024-01-25T01:51:00;101142.25;;;9.07;84.55
17230;BME280;8731;50.364;8.958;2024-01-25T01:55:24;101140.41;;;9.13;84.54
17230;BME280;8731;50.364;8.958;2024-01-25T01:59:46;101141.13;;;9.12;84.59
17230;BME280;8731;50.364;8.958;2024-01-25T02:04:09;101121.50;;;9.18;84.67
17230;BME280;8731;50.364;8.958;2024-01-25T02:08:31;101136.22;;;9.14;84.38
17230;BME280;8731;50.364;8.958;2024-01-25T02:12:55;101132.78;;;9.13;84.67
17230;BME280;8731;50.364;8.958;2024-01-25T02:17:17;101140.78;;;9.09;84.96
17230;BME280;8731;50.364;8.958;2024-01-25T02:21:40;101150.16;;;9.17;84.18
17230;BME280;8731;50.364;8.958;2024-01-25T02:26:04;101149.13;;;9.08;84.59
17230;BME280;8731;50.364;8.958;2024-01-25T02:30:26;101159.09;;;9.14;84.86
17230;BME280;8731;50.364;8.958;2024-01-25T02:34:48;101159.31;;;9.08;85.02
17230;BME280;8731;50.364;8.958;2024-01-25T02:39:10;101158.75;;;9.11;85.06
17230;BME280;8731;50.364;8.958;2024-01-25T02:43:34;101166.59;;;8.98;85.26
17230;BME280;8731;50.364;8.958;2024-01-25T02:47:56;101164.03;;;9.05;85.15
17230;BME280;8731;50.364;8.958;2024-01-25T02:52:19;101175.31;;;9.00;85.30
17230;BME280;8731;50.364;8.958;2024-01-25T02:56:41;101160.47;;;8.89;85.29
17230;BME280;8731;50.364;8.958;2024-01-25T03:01:05;101162.66;;;8.86;85.61
17230;BME280;8731;50.364;8.958;2024-01-25T03:05:27;101174.44;;;8.85;85.57
17230;BME280;8731;50.364;8.958;2024-01-25T03:09:49;101180.97;;;8.83;85.57
17230;BME280;8731;50.364;8.958;2024-01-25T03:14:11;101166.31;;;8.81;85.02
17230;BME280;8731;50.364;8.958;2024-01-25T03:18:35;101176.47;;;8.67;85.50
17230;BME280;8731;50.364;8.958;2024-01-25T03:22:57;101188.47;;;8.60;85.48
17230;BME280;8731;50.364;8.958;2024-01-25T03:27:20;101188.50;;;8.53;85.70
17230;BME280;8731;50.364;8.958;2024-01-25T03:31:42;101199.19;;;8.44;86.12
17230;BME280;8731;50.364;8.958;2024-01-25T03:36:06;101203.34;;;8.29;87.04
17230;BME280;8731;50.364;8.958;2024-01-25T03:40:29;101201.16;;;8.25;87.93
17230;BME280;8731;50.364;8.958;2024-01-25T03:44:52;101185.94;;;8.18;88.57
17230;BME280;8731;50.364;8.958;2024-01-25T03:49:14;101201.53;;;8.14;88.13
17230;BME280;8731;50.364;8.958;2024-01-25T03:53:38;101208.03;;;7.97;89.21
17230;BME280;8731;50.364;8.958;2024-01-25T03:58:03;101209.31;;;7.94;89.17
17230;BME280;8731;50.364;8.958;2024-01-25T04:02:25;101217.44;;;7.84;90.28
17230;BME280;8731;50.364;8.958;2024-01-25T04:06:47;101207.47;;;7.72;90.55
17230;BME280;8731;50.364;8.958;2024-01-25T04:11:11;101214.16;;;7.71;90.02
17230;BME280;8731;50.364;8.958;2024-01-25T04:15:33;101218.50;;;7.72;90.21
17230;BME280;8731;50.364;8.958;2024-01-25T04:19:56;101224.47;;;7.65;89.85
17230;BME280;8731;50.364;8.958;2024-01-25T04:24:18;101227.38;;;7.68;89.40
17230;BME280;8731;50.364;8.958;2024-01-25T04:28:42;101223.50;;;7.51;90.30
17230;BME280;8731;50.364;8.958;2024-01-25T04:33:04;101223.25;;;7.28;92.08
17230;BME280;8731;50.364;8.958;2024-01-25T04:37:27;101229.22;;;7.28;91.91
17230;BME280;8731;50.364;8.958;2024-01-25T04:41:49;101231.94;;;7.30;92.19
17230;BME280;8731;50.364;8.958;2024-01-25T04:46:13;101250.56;;;7.30;92.83
17230;BME280;8731;50.364;8.958;2024-01-25T04:50:35;101262.56;;;7.38;92.54
17230;BME280;8731;50.364;8.958;2024-01-25T04:54:59;101282.31;;;7.41;91.78
17230;BME280;8731;50.364;8.958;2024-01-25T04:59:21;101278.88;;;7.41;92.08
17230;BME280;8731;50.364;8.958;2024-01-25T05:03:45;101268.38;;;7.37;93.02
17230;BME280;8731;50.364;8.958;2024-01-25T05:08:07;101266.84;;;7.25;94.74
17230;BME280;8731;50.364;8.958;2024-01-25T05:12:29;101260.41;;;7.34;94.45
17230;BME280;8731;50.364;8.958;2024-01-25T05:16:52;101273.09;;;7.42;94.56
17230;BME280;8731;50.364;8.958;2024-01-25T05:21:15;101279.25;;;7.44;94.43
17230;BME280;8731;50.364;8.958;2024-01-25T05:25:37;101270.72;;;7.43;95.18
17230;BME280;8731;50.364;8.958;2024-01-25T05:30:00;101262.03;;;7.41;95.19
17230;BME280;8731;50.364;8.958;2024-01-25T05:34:23;101255.16;;;7.40;94.85
17230;BME280;8731;50.364;8.958;2024-01-25T05:38:47;101254.25;;;7.39;94.76
17230;BME280;8731;50.364;8.958;2024-01-25T05:43:09;101270.19;;;7.46;93.62
17230;BME280;8731;50.364;8.958;2024-01-25T05:47:32;101278.50;;;7.37;93.54
17230;BME280;8731;50.364;8.958;2024-01-25T05:51:54;101289.34;;;7.36;92.73
17230;BME280;8731;50.364;8.958;2024-01-25T05:56:18;101294.34;;;7.29;92.99
17230;BME280;8731;50.364;8.958;2024-01-25T06:00:40;101292.88;;;7.24;92.75
17230;BME280;8731;50.364;8.958;2024-01-25T06:05:04;101288.16;;;7.20;92.85
17230;BME280;8731;50.364;8.958;2024-01-25T06:09:26;101296.28;;;7.11;92.98
17230;BME280;8731;50.364;8.958;2024-01-25T06:13:50;101292.97;;;7.04;92.42
17230;BME280;8731;50.364;8.958;2024-01-25T06:18:12;101308.34;;;7.06;92.04
17230;BME280;8731;50.364;8.958;2024-01-25T06:22:34;101310.63;;;6.97;91.35
17230;BME280;8731;50.364;8.958;2024-01-25T06:26:57;101300.09;;;6.87;92.03
17230;BME280;8731;50.364;8.958;2024-01-25T06:31:20;101310.53;;;6.83;92.30
17230;BME280;8731;50.364;8.958;2024-01-25T06:35:43;101313.22;;;6.77;92.53
17230;BME280;8731;50.364;8.958;2024-01-25T06:40:06;101325.09;;;6.71;92.50
17230;BME280;8731;50.364;8.958;2024-01-25T06:44:29;101332.13;;;6.67;92.91
17230;BME280;8731;50.364;8.958;2024-01-25T06:48:53;101338.72;;;6.59;92.58
17230;BME280;8731;50.364;8.958;2024-01-25T06:53:15;101356.03;;;6.56;92.92
17230;BME280;8731;50.364;8.958;2024-01-25T06:57:38;101367.41;;;6.53;93.42
17230;BME280;8731;50.364;8.958;2024-01-25T07:02:00;101358.84;;;6.45;93.25
17230;BME280;8731;50.364;8.958;2024-01-25T07:06:24;101356.50;;;6.27;94.73
17230;BME280;8731;50.364;8.958;2024-01-25T07:10:47;101346.69;;;6.23;94.13
17230;BME280;8731;50.364;8.958;2024-01-25T07:15:12;101358.50;;;6.29;93.95
17230;BME280;8731;50.364;8.958;2024-01-25T07:19:35;101362.84;;;6.30;94.58
17230;BME280;8731;50.364;8.958;2024-01-25T07:24:03;101372.69;;;6.22;94.51
17230;BME280;8731;50.364;8.958;2024-01-25T07:28:26;101387.31;;;5.79;96.07
17230;BME280;8731;50.364;8.958;2024-01-25T07:32:48;101393.50;;;5.94;95.16
17230;BME280;8731;50.364;8.958;2024-01-25T07:37:11;101382.97;;;6.03;93.92
17230;BME280;8731;50.364;8.958;2024-01-25T07:41:35;101382.25;;;6.04;93.65
17230;BME280;8731;50.364;8.958;2024-01-25T07:45:57;101388.59;;;6.08;93.88
17230;BME280;8731;50.364;8.958;2024-01-25T07:50:19;101389.91;;;6.11;94.71
17230;BME280;8731;50.364;8.958;2024-01-25T07:54:42;101386.78;;;6.20;94.87
17230;BME280;8731;50.364;8.958;2024-01-25T07:59:06;101396.53;;;5.91;97.25
17230;BME280;8731;50.364;8.958;2024-01-25T08:03:28;101396.91;;;6.07;95.64
17230;BME280;8731;50.364;8.958;2024-01-25T08:07:50;101405.91;;;6.18;94.26
17230;BME280;8731;50.364;8.958;2024-01-25T08:12:12;101399.22;;;6.38;94.16
17230;BME280;8731;50.364;8.958;2024-01-25T08:16:36;101406.59;;;6.49;93.78
17230;BME280;8731;50.364;8.958;2024-01-25T08:20:58;101405.41;;;6.60;93.91
17230;BME280;8731;50.364;8.958;2024-01-25T08:25:21;101407.94;;;6.80;94.35
17230;BME280;8731;50.364;8.958;2024-01-25T08:29:45;101402.53;;;7.03;94.96
17230;BME280;8731;50.364;8.958;2024-01-25T08:34:08;101402.75;;;7.32;94.88
17230;BME280;8731;50.364;8.958;2024-01-25T08:38:31;101393.53;;;7.59;95.00
17230;BME280;8731;50.364;8.958;2024-01-25T08:42:53;101381.91;;;7.88;93.38
17230;BME280;8731;50.364;8.958;2024-01-25T08:47:16;101379.69;;;8.32;92.06
17230;BME280;8731;50.364;8.958;2024-01-25T08:51:40;101389.19;;;8.55;91.33
17230;BME280;8731;50.364;8.958;2024-01-25T08:56:03;101396.25;;;8.72;90.24
17230;BME280;8731;50.364;8.958;2024-01-25T09:00:26;101391.34;;;8.73;89.45
17230;BME280;8731;50.364;8.958;2024-01-25T09:04:49;101393.53;;;9.13;88.52
17230;BME280;8731;50.364;8.958;2024-01-25T09:09:12;101394.44;;;9.28;87.91
17230;BME280;8731;50.364;8.958;2024-01-25T09:13:35;101397.31;;;9.52;86.86
17230;BME280;8731;50.364;8.958;2024-01-25T09:17:57;101394.34;;;9.70;86.69
17230;BME280;8731;50.364;8.958;2024-01-25T09:22:19;101408.88;;;9.71;85.95
17230;BME280;8731;50.364;8.958;2024-01-25T09:26:43;101409.13;;;10.03;85.83
17230;BME280;8731;50.364;8.958;2024-01-25T09:31:05;101422.88;;;10.19;85.11
17230;BME280;8731;50.364;8.958;2024-01-25T09:35:27;101422.19;;;10.06;83.80
17230;BME280;8731;50.364;8.958;2024-01-25T09:39:50;101436.78;;;10.37;83.50
17230;BME280;8731;50.364;8.958;2024-01-25T09:44:14;101436.06;;;10.38;82.93
17230;BME280;8731;50.364;8.958;2024-01-25T09:48:37;101437.47;;;10.50;82.92
17230;BME280;8731;50.364;8.958;2024-01-25T09:53:00;101444.41;;;10.74;82.69
17230;BME280;8731;50.364;8.958;2024-01-25T09:57:27;101451.38;;;10.68;81.25
17230;BME280;8731;50.364;8.958;2024-01-25T10:01:53;101464.06;;;10.45;80.35
17230;BME280;8731;50.364;8.958;2024-01-25T10:06:16;101460.09;;;10.63;80.66
17230;BME280;8731;50.364;8.958;2024-01-25T10:10:39;101454.72;;;10.53;79.90
17230;BME280;8731;50.364;8.958;2024-01-25T10:15:02;101451.88;;;10.72;80.30
17230;BME280;8731;50.364;8.958;2024-01-25T10:19:27;101449.38;;;10.65;80.98
17230;BME280;8731;50.364;8.958;2024-01-25T10:23:49;101446.13;;;10.89;80.82
17230;BME280;8731;50.364;8.958;2024-01-25T10:28:14;101446.06;;;10.96;80.37
17230;BME280;8731;50.364;8.958;2024-01-25T10:32:37;101453.53;;;10.95;80.23
17230;BME280;8731;50.364;8.958;2024-01-25T10:37:02;101445.41;;;10.90;79.38
17230;BME280;8731;50.364;8.958;2024-01-25T10:41:26;101450.38;;;11.04;79.48
17230;BME280;8731;50.364;8.958;2024-01-25T10:45:49;101440.69;;;11.09;79.11
17230;BME280;8731;50.364;8.958;2024-01-25T10:50:15;101441.13;;;11.21;78.44
17230;BME280;8731;50.364;8.958;2024-01-25T10:54:39;101449.78;;;11.30;78.14
17230;BME280;8731;50.364;8.958;2024-01-25T10:59:02;101442.38;;;11.24;78.12
17230;BME280;8731;50.364;8.958;2024-01-25T11:03:25;101453.34;;;11.62;77.95
17230;BME280;8731;50.364;8.958;2024-01-25T11:07:49;101458.44;;;11.62;76.69
17230;BME280;8731;50.364;8.958;2024-01-25T11:12:13;101460.13;;;11.38;75.52
17230;BME280;8731;50.364;8.958;2024-01-25T11:16:39;101460.88;;;11.53;75.35
17230;BME280;8731;50.364;8.958;2024-01-25T11:21:04;101468.09;;;11.57;74.43
17230;BME280;8731;50.364;8.958;2024-01-25T11:25:27;101455.34;;;11.42;73.89
17230;BME280;8731;50.364;8.958;2024-01-25T11:29:52;101429.75;;;11.49;72.21
17230;BME280;8731;50.364;8.958;2024-01-25T11:34:15;101425.06;;;11.45;72.43
17230;BME280;8731;50.364;8.958;2024-01-25T11:38:38;101411.69;;;11.70;73.24
17230;BME280;8731;50.364;8.958;2024-01-25T11:43:01;101418.09;;;11.66;73.00
17230;BME280;8731;50.364;8.958;2024-01-25T11:47:32;101420.34;;;11.63;72.41
17230;BME280;8731;50.364;8.958;2024-01-25T11:51:54;101414.25;;;11.31;70.88
17230;BME280;8731;50.364;8.958;2024-01-25T11:56:21;101404.34;;;11.42;71.83
17230;BME280;8731;50.364;8.958;2024-01-25T12:00:46;101396.25;;;11.30;71.50
17230;BME280;8731;50.364;8.958;2024-01-25T12:05:10;101398.38;;;11.34;72.11
17230;BME280;8731;50.364;8.958;2024-01-25T12:09:34;101395.22;;;11.44;72.56
17230;BME280;8731;50.364;8.958;2024-01-25T12:13:56;101385.72;;;11.27;72.13
17230;BME280;8731;50.364;8.958;2024-01-25T12:18:20;101390.41;;;11.31;72.09
17230;BME280;8731;50.364;8.958;2024-01-25T12:22:48;101386.47;;;11.26;72.10
17230;BME280;8731;50.364;8.958;2024-01-25T12:27:10;101383.53;;;11.46;72.88
17230;BME280;8731;50.364;8.958;2024-01-25T12:31:32;101377.25;;;11.35;72.44
17230;BME280;8731;50.364;8.958;2024-01-25T12:35:55;101368.44;;;11.24;71.93
17230;BME280;8731;50.364;8.958;2024-01-25T12:40:20;101365.00;;;11.24;73.08
17230;BME280;8731;50.364;8.958;2024-01-25T12:44:42;101357.59;;;11.34;73.55
17230;BME280;8731;50.364;8.958;2024-01-25T12:49:05;101350.03;;;11.27;74.13
17230;BME280;8731;50.364;8.958;2024-01-25T12:53:28;101353.56;;;11.20;73.33
17230;BME280;8731;50.364;8.958;2024-01-25T12:57:52;101347.97;;;11.16;73.76
17230;BME280;8731;50.364;8.958;2024-01-25T13:02:14;101349.88;;;11.25;73.72
17230;BME280;8731;50.364;8.958;2024-01-25T13:06:37;101345.19;;;11.21;74.38
17230;BME280;8731;50.364;8.958;2024-01-25T13:10:59;101335.38;;;11.33;74.65
17230;BME280;8731;50.364;8.958;2024-01-25T13:15:23;101327.63;;;11.08;74.36
17230;BME280;8731;50.364;8.958;2024-01-25T13:19:46;101316.47;;;11.15;73.95
17230;BME280;8731;50.364;8.958;2024-01-25T13:24:09;101325.69;;;11.22;74.06
17230;BME280;8731;50.364;8.958;2024-01-25T13:28:31;101322.81;;;11.34;73.98
17230;BME280;8731;50.364;8.958;2024-01-25T13:32:54;101309.31;;;11.20;74.28
17230;BME280;8731;50.364;8.958;2024-01-25T13:37:17;101299.59;;;11.08;74.28
17230;BME280;8731;50.364;8.958;2024-01-25T13:41:39;101297.63;;;11.06;74.77
17230;BME280;8731;50.364;8.958;2024-01-25T13:46:02;101307.97;;;10.92;74.49
17230;BME280;8731;50.364;8.958;2024-01-25T13:50:25;101304.47;;;11.14;74.63
17230;BME280;8731;50.364;8.958;2024-01-25T13:54:48;101282.91;;;11.03;74.12
17230;BME280;8731;50.364;8.958;2024-01-25T13:59:10;101290.09;;;11.15;75.29
17230;BME280;8731;50.364;8.958;2024-01-25T14:03:32;101290.81;;;11.14;74.91
17230;BME280;8731;50.364;8.958;2024-01-25T14:07:57;101293.69;;;11.01;74.57
17230;BME280;8731;50.364;8.958;2024-01-25T14:12:19;101295.81;;;11.05;74.37
17230;BME280;8731;50.364;8.958;2024-01-25T14:16:42;101297.53;;;10.97;74.90
17230;BME280;8731;50.364;8.958;2024-01-25T14:21:04;101287.59;;;10.92;74.93
17230;BME280;8731;50.364;8.958;2024-01-25T14:25:28;101274.69;;;10.90;74.80
17230;BME280;8731;50.364;8.958;2024-01-25T14:29:50;101282.88;;;10.88;75.03
17230;BME280;8731;50.364;8.958;2024-01-25T14:34:13;101277.56;;;10.93;75.05
17230;BME280;8731;50.364;8.958;2024-01-25T14:38:35;101276.88;;;10.87;75.64
17230;BME280;8731;50.364;8.958;2024-01-25T14:42:58;101285.16;;;10.77;76.08
17230;BME280;8731;50.364;8.958;2024-01-25T14:47:22;101294.94;;;10.66;76.36
17230;BME280;8731;50.364;8.958;2024-01-25T14:51:44;101296.03;;;10.84;76.32
17230;BME280;8731;50.364;8.958;2024-01-25T14:56:12;101300.22;;;10.83;76.08
17230;BME280;8731;50.364;8.958;2024-01-25T15:00:36;101296.50;;;10.72;76.29
17230;BME280;8731;50.364;8.958;2024-01-25T15:04:59;101301.19;;;10.76;76.56
17230;BME280;8731;50.364;8.958;2024-01-25T15:09:22;101290.44;;;10.79;76.87
17230;BME280;8731;50.364;8.958;2024-01-25T15:13:44;101279.81;;;10.67;77.08
17230;BME280;8731;50.364;8.958;2024-01-25T15:18:08;101278.34;;;10.69;77.05
17230;BME280;8731;50.364;8.958;2024-01-25T15:22:30;101272.56;;;10.40;76.99
17230;BME280;8731;50.364;8.958;2024-01-25T15:26:52;101277.72;;;10.56;77.82
17230;BME280;8731;50.364;8.958;2024-01-25T15:31:14;101256.69;;;10.50;77.62
17230;BME280;8731;50.364;8.958;2024-01-25T15:35:39;101265.22;;;10.51;77.32
17230;BME280;8731;50.364;8.958;2024-01-25T15:40:02;101258.03;;;10.39;77.55
17230;BME280;8731;50.364;8.958;2024-01-25T15:44:30;101251.25;;;10.47;77.78
17230;BME280;8731;50.364;8.958;2024-01-25T15:48:53;101248.94;;;10.41;78.56
17230;BME280;8731;50.364;8.958;2024-01-25T15:53:17;101241.34;;;10.34;78.41
17230;BME280;8731;50.364;8.958;2024-01-25T15:57:39;101248.66;;;10.31;78.88
17230;BME280;8731;50.364;8.958;2024-01-25T16:02:02;101241.66;;;10.22;78.72
17230;BME280;8731;50.364;8.958;2024-01-25T16:06:24;101230.47;;;10.05;79.31
17230;BME280;8731;50.364;8.958;2024-01-25T16:10:48;101240.47;;;10.04;79.60
17230;BME280;8731;50.364;8.958;2024-01-25T16:15:11;101240.13;;;10.01;79.57
17230;BME280;8731;50.364;8.958;2024-01-25T16:19:33;101230.91;;;9.94;79.82
17230;BME280;8731;50.364;8.958;2024-01-25T16:23:57;101237.66;;;9.87;80.11
17230;BME280;8731;50.364;8.958;2024-01-25T16:28:23;101248.63;;;9.78;79.79
17230;BME280;8731;50.364;8.958;2024-01-25T16:32:45;101246.47;;;9.74;79.88
17230;BME280;8731;50.364;8.958;2024-01-25T16:37:08;101242.69;;;9.64;79.79
17230;BME280;8731;50.364;8.958;2024-01-25T16:41:31;101230.94;;;9.57;79.67
17230;BME280;8731;50.364;8.958;2024-01-25T16:45:55;101229.00;;;9.47;80.06
17230;BME280;8731;50.364;8.958;2024-01-25T16:50:18;101219.38;;;9.45;79.94
17230;BME280;8731;50.364;8.958;2024-01-25T16:54:40;101227.81;;;9.30;80.20
17230;BME280;8731;50.364;8.958;2024-01-25T16:59:02;101226.22;;;9.23;80.54
17230;BME280;8731;50.364;8.958;2024-01-25T17:03:26;101225.69;;;9.11;80.66
17230;BME280;8731;50.364;8.958;2024-01-25T17:07:48;101220.09;;;9.07;80.53
17230;BME280;8731;50.364;8.958;2024-01-25T17:12:11;101222.13;;;8.88;81.25
17230;BME280;8731;50.364;8.958;2024-01-25T17:16:38;101222.88;;;8.73;81.49
17230;BME280;8731;50.364;8.958;2024-01-25T17:21:02;101225.47;;;8.37;81.91
17230;BME280;8731;50.364;8.958;2024-01-25T17:25:24;101211.88;;;8.58;82.00
17230;BME280;8731;50.364;8.958;2024-01-25T17:29:46;101213.13;;;8.47;81.98
17230;BME280;8731;50.364;8.958;2024-01-25T17:34:09;101211.34;;;8.39;81.74
17230;BME280;8731;50.364;8.958;2024-01-25T17:38:33;101214.75;;;8.25;82.05
17230;BME280;8731;50.364;8.958;2024-01-25T17:42:59;101200.25;;;8.03;83.18
17230;BME280;8731;50.364;8.958;2024-01-25T17:47:21;101199.53;;;8.04;83.07
17230;BME280;8731;50.364;8.958;2024-01-25T17:51:46;101193.53;;;8.04;83.16
17230;BME280;8731;50.364;8.958;2024-01-25T17:56:10;101188.28;;;8.02;83.50
17230;BME280;8731;50.364;8.958;2024-01-25T18:00:32;101183.91;;;7.80;84.14
17230;BME280;8731;50.364;8.958;2024-01-25T18:04:54;101170.31;;;7.51;84.92
17230;BME280;8731;50.364;8.958;2024-01-25T18:09:18;101169.22;;;7.49;84.79
17230;BME280;8731;50.364;8.958;2024-01-25T18:13:45;101180.97;;;7.48;85.25
17230;BME280;8731;50.364;8.958;2024-01-25T18:18:08;101173.97;;;7.60;85.12
17230;BME280;8731;50.364;8.958;2024-01-25T18:22:30;101172.50;;;7.62;84.97
17230;BME280;8731;50.364;8.958;2024-01-25T18:26:55;101177.19;;;7.45;85.84
17230;BME280;8731;50.364;8.958;2024-01-25T18:31:19;101170.97;;;7.28;86.09
17230;BME280;8731;50.364;8.958;2024-01-25T18:35:41;101181.66;;;7.33;86.94
17230;BME280;8731;50.364;8.958;2024-01-25T18:40:05;101175.72;;;7.54;86.61
17230;BME280;8731;50.364;8.958;2024-01-25T18:44:28;101167.03;;;7.52;86.57
17230;BME280;8731;50.364;8.958;2024-01-25T18:48:51;101169.94;;;7.55;86.78
17230;BME280;8731;50.364;8.958;2024-01-25T18:53:14;101171.78;;;7.63;86.67
17230;BME280;8731;50.364;8.958;2024-01-25T18:57:37;101171.97;;;7.64;86.94
17230;BME280;8731;50.364;8.958;2024-01-25T19:02:02;101171.06;;;7.64;86.82
17230;BME280;8731;50.364;8.958;2024-01-25T19:06:31;101173.78;;;7.65;87.61
17230;BME280;8731;50.364;8.958;2024-01-25T19:10:56;101172.16;;;7.73;87.65
17230;BME280;8731;50.364;8.958;2024-01-25T19:15:20;101169.25;;;7.77;87.38
17230;BME280;8731;50.364;8.958;2024-01-25T19:19:42;101168.34;;;7.77;87.54
17230;BME280;8731;50.364;8.958;2024-01-25T19:24:06;101170.56;;;7.81;87.13
17230;BME280;8731;50.364;8.958;2024-01-25T19:28:30;101165.66;;;7.82;87.41
17230;BME280;8731;50.364;8.958;2024-01-25T19:32:56;101166.72;;;7.77;86.86
17230;BME280;8731;50.364;8.958;2024-01-25T19:37:18;101162.00;;;7.80;87.29
17230;BME280;8731;50.364;8.958;2024-01-25T19:41:42;101168.00;;;7.88;87.98
17230;BME280;8731;50.364;8.958;2024-01-25T19:46:06;101165.31;;;7.86;88.75
17230;BME280;8731;50.364;8.958;2024-01-25T19:50:28;101171.81;;;7.91;89.10
17230;BME280;8731;50.364;8.958;2024-01-25T19:54:51;101168.38;;;7.84;90.05
17230;BME280;8731;50.364;8.958;2024-01-25T19:59:15;101160.56;;;7.75;91.25
17230;BME280;8731;50.364;8.958;2024-01-25T20:03:39;101164.91;;;7.76;91.73
17230;BME280;8731;50.364;8.958;2024-01-25T20:08:02;101170.16;;;7.78;91.75
17230;BME280;8731;50.364;8.958;2024-01-25T20:12:25;101167.47;;;7.90;90.85
17230;BME280;8731;50.364;8.958;2024-01-25T20:16:49;101166.94;;;7.86;91.77
17230;BME280;8731;50.364;8.958;2024-01-25T20:21:11;101175.25;;;7.92;92.18
17230;BME280;8731;50.364;8.958;2024-01-25T20:25:34;101170.00;;;7.83;93.01
17230;BME280;8731;50.364;8.958;2024-01-25T20:29:58;101160.22;;;7.93;92.51
17230;BME280;8731;50.364;8.958;2024-01-25T20:34:22;101160.59;;;7.89;92.79
17230;BME280;8731;50.364;8.958;2024-01-25T20:38:45;101160.22;;;7.93;92.96
17230;BME280;8731;50.364;8.958;2024-01-25T20:43:07;101153.34;;;7.92;93.20
17230;BME280;8731;50.364;8.958;2024-01-25T20:47:33;101147.53;;;7.93;93.86
17230;BME280;8731;50.364;8.958;2024-01-25T20:51:56;101140.84;;;7.94;94.11
17230;BME280;8731;50.364;8.958;2024-01-25T20:56:19;101142.13;;;7.90;94.41
17230;BME280;8731;50.364;8.958;2024-01-25T21:00:44;101135.25;;;7.89;95.43
17230;BME280;8731;50.364;8.958;2024-01-25T21:05:08;101139.22;;;7.87;96.08
17230;BME280;8731;50.364;8.958;2024-01-25T21:09:33;101138.69;;;7.90;95.79
17230;BME280;8731;50.364;8.958;2024-01-25T21:13:56;101131.97;;;7.97;95.05
17230;BME280;8731;50.364;8.958;2024-01-25T21:18:18;101139.59;;;7.90;96.73
17230;BME280;8731;50.364;8.958;2024-01-25T21:22:41;101139.75;;;7.92;97.51
17230;BME280;8731;50.364;8.958;2024-01-25T21:27:05;101131.97;;;7.90;97.01
17230;BME280;8731;50.364;8.958;2024-01-25T21:31:27;101129.97;;;8.02;96.48
17230;BME280;8731;50.364;8.958;2024-01-25T21:35:49;101129.97;;;8.02;96.56
17230;BME280;8731;50.364;8.958;2024-01-25T21:40:12;101136.50;;;8.07;95.83
17230;BME280;8731;50.364;8.958;2024-01-25T21:44:37;101128.34;;;8.10;96.25
17230;BME280;8731;50.364;8.958;2024-01-25T21:48:59;101126.72;;;8.10;95.85
17230;BME280;8731;50.364;8.958;2024-01-25T21:53:21;101126.16;;;8.13;96.40
17230;BME280;8731;50.364;8.958;2024-01-25T21:57:44;101135.59;;;8.14;96.67
17230;BME280;8731;50.364;8.958;2024-01-25T22:02:09;101134.31;;;8.17;97.49
17230;BME280;8731;50.364;8.958;2024-01-25T22:06:31;101126.88;;;8.19;97.02
17230;BME280;8731;50.364;8.958;2024-01-25T22:10:53;101126.53;;;8.16;97.74
17230;BME280;8731;50.364;8.958;2024-01-25T22:15:16;101121.44;;;8.16;98.38
17230;BME280;8731;50.364;8.958;2024-01-25T22:19:39;101115.28;;;8.21;98.96
17230;BME280;8731;50.364;8.958;2024-01-25T22:24:02;101114.56;;;8.22;100.00
17230;BME280;8731;50.364;8.958;2024-01-25T22:28:25;101110.19;;;8.21;100.00
17230;BME280;8731;50.364;8.958;2024-01-25T22:32:47;101117.63;;;8.26;100.00
17230;BME280;8731;50.364;8.958;2024-01-25T22:37:11;101116.53;;;8.24;100.00
17230;BME280;8731;50.364;8.958;2024-01-25T22:41:33;101118.19;;;8.31;100.00
17230;BME280;8731;50.364;8.958;2024-01-25T22:45:56;101122.91;;;8.35;100.00
17230;BME280;8731;50.364;8.958;2024-01-25T22:50:18;101119.63;;;8.43;100.00
17230;BME280;8731;50.364;8.958;2024-01-25T22:54:41;101115.31;;;8.35;100.00
17230;BME280;8731;50.364;8.958;2024-01-25T22:59:05;101114.00;;;8.39;100.00
17230;BME280;8731;50.364;8.958;2024-01-25T23:03:27;101115.09;;;8.41;100.00
17230;BME280;8731;50.364;8.958;2024-01-25T23:07:50;101106.94;;;8.43;100.00
17230;BME280;8731;50.364;8.958;2024-01-25T23:12:13;101104.38;;;8.43;100.00
17230;BME280;8731;50.364;8.958;2024-01-25T23:16:36;101096.41;;;8.47;100.00
17230;BME280;8731;50.364;8.958;2024-01-25T23:20:58;101103.28;;;8.48;100.00
17230;BME280;8731;50.364;8.958;2024-01-25T23:25:21;101097.84;;;8.52;100.00